Time;durP1;ratioP1;P1;durP2;ratioP2;P2;SDS_P1;SDS_P2;PMS_P1;PMS_P2;Temp;Humidity;BMP_temperature;BMP_pressure;BME280_temperature;BME280_humidity;BME280_pressure;Samples;Min_cycle;Max_cycle;Signal;HPM_P1;HPM_P2
2024/02/15 15:28:05;;;;;;;;;;;3.60;99.90;;;;;;5114252;27;20277;-95
2024/02/15 15:30:30;;;;;;;;;;;3.60;99.90;;;;;;5111919;28;19919;-96
2024/02/15 15:32:56;;;;;;;;;;;3.60;99.90;;;;;;5110696;28;19912;-96
2024/02/15 15:35:23;;;;;;;;;;;3.70;99.90;;;;;;5090550;28;19912;-93
2024/02/15 15:37:50;;;;;;;;;;;3.80;99.90;;;;;;5098142;28;20281;-92
2024/02/15 15:40:16;;;;;;;;;;;3.90;99.90;;;;;;5110556;28;19911;-93
2024/02/15 15:42:42;;;;;;;;;;;4.00;99.90;;;;;;5110079;28;19908;-94
2024/02/15 15:45:09;;;;;;;;;;;4.00;99.90;;;;;;5110423;28;19991;-92
2024/02/15 15:47:35;;;;;;;;;;;4.10;99.90;;;;;;5110301;28;20065;-93
2024/02/15 15:50:00;;;;;;;;;;;4.10;99.90;;;;;;5110166;28;20367;-91
2024/02/15 15:52:26;;;;;;;;;;;4.20;99.90;;;;;;5109431;28;19957;-92
2024/02/15 15:54:51;;;;;;;;;;;4.20;99.90;;;;;;5109864;28;19916;-90
2024/02/15 15:57:17;;;;;;;;;;;4.20;99.90;;;;;;5111787;28;19961;-92
2024/02/15 15:59:43;;;;;;;;;;;4.20;99.90;;;;;;5107388;28;19923;-93
2024/02/15 16:02:09;;;;;;;;;;;4.20;99.90;;;;;;5103586;28;19919;-93
2024/02/15 16:04:34;;;;;;;;;;;4.20;99.90;;;;;;5110349;28;19912;-92
2024/02/15 16:07:00;;;;;;;;;;;4.20;99.90;;;;;;5110704;28;19957;-92
2024/02/15 16:09:25;;;;;;;;;;;4.20;99.90;;;;;;5109943;28;19908;-94
2024/02/15 16:11:53;;;;;;;;;;;4.20;99.90;;;;;;5109518;28;19912;-93
2024/02/15 16:14:18;;;;;;;;;;;4.20;99.90;;;;;;5110604;28;20364;-92
2024/02/15 16:16:44;;;;;;;;;;;4.20;99.90;;;;;;5109670;28;19937;-92
2024/02/15 16:19:09;;;;;;;;;;;4.20;99.90;;;;;;5108302;28;19912;-91
2024/02/15 16:21:35;;;;;;;;;;;4.20;99.90;;;;;;5110902;28;19908;-91
2024/02/15 16:24:01;;;;;;;;;;;4.30;99.90;;;;;;5110733;28;19934;-92
2024/02/15 16:26:26;;;;;;;;;;;4.30;99.90;;;;;;5113948;28;20299;-91
2024/02/15 16:28:52;;;;;;;;;;;4.30;99.90;;;;;;5115799;28;19915;-91
2024/02/15 16:31:17;;;;;;;;;;;4.30;99.90;;;;;;5109735;28;20303;-92
2024/02/15 16:33:43;;;;;;;;;;;4.30;99.90;;;;;;5128707;28;19915;-90
2024/02/15 16:36:08;;;;;;;;;;;4.40;99.90;;;;;;5110654;28;19958;-91
2024/02/15 16:38:38;;;;;;;;;;;4.40;99.90;;;;;;5100116;28;19935;-91
2024/02/15 16:41:04;;;;;;;;;;;4.40;99.90;;;;;;5095775;28;19916;-91
2024/02/15 16:43:29;;;;;;;;;;;4.40;99.90;;;;;;5097072;28;19935;-91
2024/02/15 16:45:55;;;;;;;;;;;4.50;99.90;;;;;;5095916;28;19916;-92
2024/02/15 16:48:20;;;;;;;;;;;4.40;99.90;;;;;;5095918;28;19964;-90
2024/02/15 16:50:46;;;;;;;;;;;4.50;99.90;;;;;;5095435;28;19927;-93
2024/02/15 16:53:14;;;;;;;;;;;4.50;99.90;;;;;;5105429;28;19912;-95
2024/02/15 16:55:41;;;;;;;;;;;4.50;99.90;;;;;;5096301;28;19919;-91
2024/02/15 16:58:10;;;;;;;;;;;4.50;99.90;;;;;;5095011;28;20443;-92
2024/02/15 17:00:36;;;;;;;;;;;4.50;99.90;;;;;;5076913;28;20344;-92
2024/02/15 17:03:02;;;;;;;;;;;4.50;99.90;;;;;;5075389;28;20001;-92
2024/02/15 17:05:28;;;;;;;;;;;4.40;99.90;;;;;;5075320;28;19944;-92
2024/02/15 17:07:56;;;;;;;;;;;4.50;99.90;;;;;;5074964;28;19931;-92
2024/02/15 17:10:22;;;;;;;;;;;4.50;99.90;;;;;;5096081;28;20245;-90
2024/02/15 17:12:47;;;;;;;;;;;4.40;99.90;;;;;;5096474;28;19912;-93
2024/02/15 17:15:13;;;;;;;;;;;4.40;99.90;;;;;;5095388;28;20344;-91
2024/02/15 17:17:39;;;;;;;;;;;4.40;99.90;;;;;;5095298;28;19908;-93
2024/02/15 17:20:13;;;;;;;;;;;4.40;99.90;;;;;;5095302;28;19912;-92
